首页
METAR-TAF:

METAR-TAF

机场 :

Maragheh, 伊朗

纬度: 37-20-55N, 经度: 046-07-35E, 海拔: 1340米

当前天气观测

该预报发布于49分钟前的08:00 UTC
静风
温度 0°C
湿度 80%
气压 1016 hPa
能見度: 0600
多云层高于1700英尺
阴天层高于8000英尺
小雪, 轻雾

METAR: OITM 180800Z 00000KT 0600 -SN BR BKN017 OVC080 M00/M03 Q1016

时间: 12:19 (08:49 UTC)


TAF: 丢失

超过4000个机场的气象观测和天气预报(METAR&TAF报告)。

可查询的气象台以黄色和红色小点在地图上表示。

将鼠标移到小点上方,可查看气象台名称。

然后点击查看天气观测和预报。

如需切换地图:点击带黑十字的绿色按钮放大地图;点击带横线的绿色按钮缩小地图;或者点击绿色箭头查看邻近地区的地图。


METAR-TAF: